This is the latest recevied weather packets stored in our database for station/object DO1YM-13. If no packets are shown the sender has not sent any weather packets the latest 10 day(s).
| Time | Temp. | Humidity | Pressure | Rain* | Wind** | Luminosity | Snow |
|---|---|---|---|---|---|---|---|
| 1787406047 | 19.44° C | 56% | 1009.5 hPa | 0 mm | - | 63 W/m² | - |
| 1787405747 | 19.44° C | 56% | 1009.8 hPa | 0 mm | - | 135 W/m² | - |
| 1787405448 | 19.44° C | 57% | 1009.5 hPa | 0 mm | - | 118 W/m² | - |
| 1787405148 | 18.89° C | 58% | 1009.5 hPa | 0 mm | - | 102 W/m² | - |
| 1787404848 | 18.89° C | 59% | 1009.5 hPa | 0 mm | - | 108 W/m² | - |
| 1787404248 | 19.44° C | 55% | 1009.5 hPa | 0 mm | - | 82 W/m² | - |
| 1787403948 | 19.44° C | 54% | 1009.5 hPa | 0 mm | - | 86 W/m² | - |
| 1787403647 | 19.44° C | 55% | 1009.5 hPa | 0 mm | - | 112 W/m² | - |
| 1787403347 | 19.44° C | 54% | 1009.5 hPa | 0 mm | - | 90 W/m² | - |
| 1787403048 | 19.44° C | 56% | 1009.5 hPa | 0 mm | - | 69 W/m² | - |
| 1787402748 | 19.44° C | 54% | 1009.5 hPa | 0 mm | - | 81 W/m² | - |
| 1787402448 | 19.44° C | 54% | 1009.5 hPa | 0 mm | - | 53 W/m² | - |
| 1787402148 | 19.44° C | 54% | 1009.5 hPa | 0 mm | - | 56 W/m² | - |
| 1787401849 | 19.44° C | 54% | 1009.5 hPa | 0 mm | - | 63 W/m² | - |
| 1787401547 | 19.44° C | 55% | 1009.5 hPa | 0 mm | - | 71 W/m² | - |
| 1787401248 | 20° C | 54% | 1009.5 hPa | 0 mm | - | 59 W/m² | - |
| 1787400947 | 20° C | 53% | 1009.5 hPa | 0 mm | - | 58 W/m² | - |
| 1787400648 | 19.44° C | 55% | 1009.5 hPa | 0 mm | - | 59 W/m² | - |
| 1787400347 | 18.89° C | 57% | 1009.5 hPa | 0 mm | - | 74 W/m² | - |
| 1787400047 | 18.89° C | 59% | 1009.5 hPa | 0 mm | - | 200 W/m² | - |
| 1787399748 | 18.89° C | 58% | 1009.5 hPa | 0 mm | - | 130 W/m² | - |
| 1787399448 | 19.44° C | 57% | 1009.5 hPa | 0 mm | - | 197 W/m² | - |
| 1787399147 | 18.89° C | 57% | 1009.5 hPa | 0 mm | - | 233 W/m² | - |
| 1787398847 | 18.33° C | 58% | 1009.5 hPa | 0 mm | - | 205 W/m² | - |
| 1787398547 | 18.33° C | 60% | 1009.1 hPa | 0 mm | - | 106 W/m² | - |
* Rain latest hour (hover to see other rain measurements)
** Current wind speed in m/s (hover to see current wind gust speed)